TimeCST,TemperatureF,Dew PointF,Humidity,Sea Level PressureIn,VisibilityMPH,Wind Direction,Wind SpeedMPH,Gust SpeedMPH,PrecipitationIn,Events,Conditions,WindDirDegrees,DateUTC
12:15 AM,35.6,32.0,87,30.39,5.0,WNW,8.1,-,N/A,Snow,Light Snow,290,2013-02-16 06:15:00
12:35 AM,35.6,33.8,93,30.40,10.0,WNW,11.5,16.1,N/A,,Overcast,290,2013-02-16 06:35:00
12:55 AM,35.6,33.8,93,30.39,10.0,WNW,6.9,-,N/A,,Mostly Cloudy,300,2013-02-16 06:55:00
1:15 AM,35.6,35.6,100,30.39,10.0,NW,6.9,-,N/A,,Mostly Cloudy,310,2013-02-16 07:15:00
1:35 AM,35.6,35.6,100,30.39,10.0,NW,6.9,-,N/A,,Overcast,310,2013-02-16 07:35:00
1:55 AM,35.6,35.6,100,30.39,5.0,WNW,10.4,-,N/A,Snow,Light Snow,300,2013-02-16 07:55:00
2:15 AM,35.6,35.6,100,30.38,10.0,WNW,9.2,-,N/A,,Overcast,290,2013-02-16 08:15:00
2:35 AM,35.6,35.6,100,30.37,10.0,West,8.1,-,N/A,,Scattered Clouds,270,2013-02-16 08:35:00
2:55 AM,35.6,35.6,100,30.38,10.0,WNW,8.1,-,N/A,,Mostly Cloudy,290,2013-02-16 08:55:00
3:15 AM,35.6,35.6,100,30.38,10.0,NW,9.2,-,N/A,,Overcast,310,2013-02-16 09:15:00
3:35 AM,35.6,35.6,100,30.37,10.0,NNW,10.4,-,N/A,,Overcast,330,2013-02-16 09:35:00
3:55 AM,35.6,33.8,93,30.37,10.0,NW,11.5,-,N/A,,Mostly Cloudy,320,2013-02-16 09:55:00
4:15 AM,33.8,32.0,93,30.37,10.0,NNW,6.9,-,N/A,,Scattered Clouds,330,2013-02-16 10:15:00
4:35 AM,33.8,32.0,93,30.38,10.0,NW,5.8,-,N/A,,Clear,320,2013-02-16 10:35:00
4:55 AM,33.8,32.0,93,30.37,10.0,NW,5.8,-,N/A,,Clear,310,2013-02-16 10:55:00
5:15 AM,32.0,32.0,100,30.37,10.0,NW,5.8,-,N/A,,Clear,310,2013-02-16 11:15:00
5:35 AM,32.0,32.0,100,30.38,10.0,WNW,6.9,-,N/A,,Clear,290,2013-02-16 11:35:00
5:55 AM,32.0,32.0,100,30.38,10.0,WNW,5.8,-,N/A,,Clear,300,2013-02-16 11:55:00
6:15 AM,32.0,30.2,93,30.38,10.0,NW,6.9,-,N/A,,Clear,310,2013-02-16 12:15:00
6:55 AM,32.0,30.2,93,30.37,10.0,Calm,Calm,-,N/A,,Clear,0,2013-02-16 12:55:00
7:15 AM,32.0,30.2,93,30.38,10.0,Calm,Calm,-,N/A,,Clear,0,2013-02-16 13:15:00
7:35 AM,32.0,30.2,93,30.39,10.0,NW,3.5,-,N/A,,Clear,310,2013-02-16 13:35:00
7:55 AM,32.0,28.4,87,30.40,10.0,NNW,5.8,-,N/A,,Clear,330,2013-02-16 13:55:00
8:15 AM,32.0,28.4,87,30.40,10.0,NNW,6.9,-,N/A,,Clear,330,2013-02-16 14:15:00
8:35 AM,33.8,28.4,81,30.39,10.0,North,5.8,-,N/A,,Clear,350,2013-02-16 14:35:00
8:55 AM,33.8,26.6,75,30.40,10.0,North,4.6,-,N/A,,Clear,350,2013-02-16 14:55:00
9:15 AM,35.6,26.6,70,30.40,10.0,North,4.6,-,N/A,,Clear,10,2013-02-16 15:15:00
9:35 AM,35.6,23.0,60,30.40,10.0,Calm,Calm,-,N/A,,Clear,0,2013-02-16 15:35:00
12:15 PM,42.8,23.0,46,30.34,10.0,SW,6.9,-,N/A,,Clear,230,2013-02-16 18:15:00
12:35 PM,42.8,23.0,46,30.32,10.0,Calm,Calm,-,N/A,,Clear,0,2013-02-16 18:35:00
12:55 PM,44.6,21.2,39,30.31,10.0,Calm,Calm,-,N/A,,Scattered Clouds,0,2013-02-16 18:55:00
1:15 PM,44.6,23.0,43,30.29,10.0,Calm,Calm,-,N/A,,Mostly Cloudy,0,2013-02-16 19:15:00
1:35 PM,46.4,26.6,46,30.27,10.0,SE,8.1,-,N/A,,Scattered Clouds,140,2013-02-16 19:35:00
1:55 PM,48.2,24.8,40,30.25,10.0,SSE,8.1,-,N/A,,Clear,160,2013-02-16 19:55:00
2:15 PM,51.8,26.6,38,30.24,10.0,WSW,9.2,-,N/A,,Clear,240,2013-02-16 20:15:00
2:35 PM,51.8,26.6,38,30.23,10.0,SW,6.9,-,N/A,,Clear,220,2013-02-16 20:35:00
2:55 PM,51.8,26.6,38,30.22,10.0,SW,6.9,-,N/A,,Clear,230,2013-02-16 20:55:00
3:15 PM,51.8,28.4,41,30.20,10.0,SW,13.8,-,N/A,,Clear,220,2013-02-16 21:15:00
3:35 PM,51.8,26.6,38,30.20,10.0,SW,15.0,19.6,N/A,,Clear,220,2013-02-16 21:35:00
3:55 PM,51.8,28.4,41,30.19,10.0,SSW,12.7,19.6,N/A,,Clear,210,2013-02-16 21:55:00
4:15 PM,51.8,28.4,41,30.19,10.0,SSW,11.5,18.4,N/A,,Clear,210,2013-02-16 22:15:00
4:35 PM,53.6,30.2,41,30.18,10.0,SW,12.7,-,N/A,,Clear,230,2013-02-16 22:35:00
4:55 PM,51.8,30.2,44,30.17,10.0,SW,12.7,-,N/A,,Clear,220,2013-02-16 22:55:00
5:15 PM,53.6,32.0,44,30.16,10.0,SW,10.4,-,N/A,,Clear,230,2013-02-16 23:15:00
5:35 PM,51.8,30.2,44,30.16,10.0,SSW,8.1,-,N/A,,Clear,210,2013-02-16 23:35:00
5:55 PM,51.8,30.2,44,30.15,10.0,South,6.9,-,N/A,,Clear,190,2013-02-16 23:55:00
6:15 PM,51.8,32.0,47,30.15,10.0,SSW,8.1,-,N/A,,Clear,210,2013-02-17 00:15:00
6:35 PM,48.2,32.0,54,30.14,10.0,SSW,8.1,-,N/A,,Clear,200,2013-02-17 00:35:00
6:55 PM,48.2,32.0,54,30.14,10.0,South,8.1,-,N/A,,Clear,190,2013-02-17 00:55:00
7:15 PM,48.2,32.0,54,30.14,10.0,SSW,6.9,-,N/A,,Clear,200,2013-02-17 01:15:00
7:35 PM,46.4,32.0,57,30.13,10.0,South,9.2,-,N/A,,Clear,190,2013-02-17 01:35:00
7:55 PM,44.6,32.0,61,30.13,10.0,South,8.1,-,N/A,,Clear,190,2013-02-17 01:55:00
8:15 PM,44.6,32.0,61,30.13,10.0,SSW,8.1,-,N/A,,Clear,200,2013-02-17 02:15:00
8:35 PM,44.6,32.0,61,30.13,10.0,South,8.1,-,N/A,,Clear,190,2013-02-17 02:35:00
8:55 PM,44.6,32.0,61,30.12,10.0,SSW,8.1,-,N/A,,Clear,200,2013-02-17 02:55:00
9:15 PM,42.8,32.0,66,30.12,10.0,South,6.9,-,N/A,,Clear,190,2013-02-17 03:15:00
9:35 PM,42.8,32.0,66,30.12,10.0,South,8.1,-,N/A,,Clear,190,2013-02-17 03:35:00
9:55 PM,42.8,32.0,66,30.12,10.0,SSW,9.2,-,N/A,,Clear,200,2013-02-17 03:55:00
10:15 PM,42.8,32.0,66,30.12,10.0,SSW,9.2,-,N/A,,Clear,200,2013-02-17 04:15:00
10:35 PM,42.8,32.0,66,30.12,10.0,South,9.2,-,N/A,,Clear,190,2013-02-17 04:35:00
10:55 PM,42.8,32.0,66,30.11,10.0,South,8.1,-,N/A,,Clear,190,2013-02-17 04:55:00
11:15 PM,42.8,32.0,66,30.11,10.0,South,9.2,-,N/A,,Clear,190,2013-02-17 05:15:00
11:35 PM,42.8,32.0,66,30.10,10.0,South,9.2,-,N/A,,Clear,190,2013-02-17 05:35:00
11:55 PM,42.8,32.0,66,30.09,10.0,South,8.1,-,N/A,,Clear,190,2013-02-17 05:55:00